Time;durP1;ratioP1;P1;durP2;ratioP2;P2;SDS_P1;SDS_P2;PMS_P1;PMS_P2;Temp;Humidity;BMP_temperature;BMP_pressure;BME280_temperature;BME280_humidity;BME280_pressure;Samples;Min_cycle;Max_cycle;Signal;HPM_P1;HPM_P2
2021/11/28 00:00:44;;;;;;;1999.90;999.90;;;;;;;-2.20;58.88;99087.00;4904414;28;97857;-76
2021/11/28 00:03:16;;;;;;;1999.90;999.90;;;;;;;-2.24;58.51;99077.28;4884757;28;100314;-72
2021/11/28 00:05:50;;;;;;;1999.90;999.90;;;;;;;-2.24;58.72;99079.88;4901150;28;97147;-75
2021/11/28 00:08:26;;;;;;;1999.90;999.90;;;;;;;-2.26;59.13;99078.94;4901649;28;96883;-75
2021/11/28 00:11:02;;;;;;;1999.90;999.90;;;;;;;-2.27;58.65;99081.47;4887741;28;99698;-75
2021/11/28 00:13:50;;;;;;;1999.90;999.90;;;;;;;-2.30;59.16;99090.03;4911840;28;97178;-75
2021/11/28 00:16:19;;;;;;;1999.90;999.90;;;;;;;-2.32;59.23;99091.66;4896765;28;96942;-75
2021/11/28 00:18:48;;;;;;;1999.90;999.90;;;;;;;-2.33;58.93;99089.91;4912142;28;97063;-76
2021/11/28 00:21:16;;;;;;;1999.90;999.90;;;;;;;-2.34;58.57;99095.91;4912706;28;99417;-75
2021/11/28 00:23:45;;;;;;;1999.90;999.90;;;;;;;-2.33;58.36;99092.50;4908237;28;98740;-76
2021/11/28 00:26:13;;;;;;;1999.90;999.90;;;;;;;-2.33;58.36;99092.50;4904424;28;97091;-75
2021/11/28 00:28:42;;;;;;;1999.90;999.90;;;;;;;-2.35;58.62;99096.75;4899946;28;97561;-76
2021/11/28 00:31:11;;;;;;;1999.90;999.90;;;;;;;-2.35;58.64;99095.84;4883017;28;98525;-76
2021/11/28 00:33:39;;;;;;;1999.90;999.90;;;;;;;-2.36;59.04;99092.34;4881819;28;97647;-75
2021/11/28 00:36:11;;;;;;;1999.90;999.90;;;;;;;-2.37;58.96;99102.69;4880982;28;97406;-75
2021/11/28 00:38:39;;;;;;;1999.90;999.90;;;;;;;-2.37;58.55;99106.19;4899443;28;97894;-76
2021/11/28 00:41:07;;;;;;;1999.90;999.90;;;;;;;-2.39;58.21;99096.53;4896341;28;99813;-76
2021/11/28 00:43:35;;;;;;;1999.90;999.90;;;;;;;-2.39;58.43;99104.34;4898507;28;99132;-76
2021/11/28 00:46:03;;;;;;;1999.90;999.90;;;;;;;-2.38;58.19;99107.00;4897904;28;97247;-76
2021/11/28 00:48:34;;;;;;;1999.90;999.90;;;;;;;-2.40;58.90;99103.44;4899612;28;98862;-76
2021/11/28 00:51:22;;;;;;;1999.90;999.90;;;;;;;-2.42;58.80;99112.03;4912788;28;99196;-75
2021/11/28 00:53:52;;;;;;;1999.90;999.90;;;;;;;-2.49;58.45;99105.63;4897886;28;97075;-76
2021/11/28 00:56:21;;;;;;;1999.90;999.90;;;;;;;-2.50;58.50;99108.16;4896438;28;97295;-76
2021/11/28 00:58:49;;;;;;;1999.90;999.90;;;;;;;-2.52;58.30;99113.31;4882903;28;97068;-76
2021/11/28 01:01:19;;;;;;;1999.90;999.90;;;;;;;-2.55;58.63;99112.28;4880454;28;99981;-74
2021/11/28 01:03:48;;;;;;;1999.90;999.90;;;;;;;-2.54;58.39;99111.44;4897998;28;98652;-74
2021/11/28 01:06:16;;;;;;;1999.90;999.90;;;;;;;-2.54;58.97;99109.75;4897475;28;96897;-75
2021/11/28 01:08:45;;;;;;;1999.90;999.90;;;;;;;-2.50;58.88;99119.47;4881521;28;96918;-75
2021/11/28 01:11:15;;;;;;;1999.90;999.90;;;;;;;-2.49;58.85;99118.66;4881374;28;100512;-73
2021/11/28 01:13:43;;;;;;;1999.90;999.90;;;;;;;-2.47;58.97;99116.13;4882257;28;99258;-76
2021/11/28 01:16:11;;;;;;;1999.90;999.90;;;;;;;-2.49;58.29;99118.66;4896847;28;96936;-74
2021/11/28 01:18:39;;;;;;;1999.90;999.90;;;;;;;-2.50;58.47;99123.78;4881740;28;97607;-74
2021/11/28 01:21:07;;;;;;;1999.90;999.90;;;;;;;-2.51;58.16;99119.41;4863981;28;99317;-73
2021/11/28 01:23:36;;;;;;;1999.90;999.90;;;;;;;-2.52;58.17;99118.50;4888693;28;99673;-75
2021/11/28 01:26:14;;;;;;;1999.90;999.90;;;;;;;-2.53;58.06;99121.97;4870610;28;97345;-72
2021/11/28 01:28:43;;;;;;;1999.90;999.90;;;;;;;-2.54;58.12;99116.66;4890626;28;97581;-75
2021/11/28 01:31:11;;;;;;;1999.90;999.90;;;;;;;-2.53;58.86;99119.34;4902502;28;98134;-74
2021/11/28 01:33:39;;;;;;;1999.90;999.90;;;;;;;-2.60;58.05;99127.66;4884762;28;99493;-75
2021/11/28 01:36:09;;;;;;;1999.90;999.90;;;;;;;-2.61;58.37;99115.50;4882217;28;97227;-75
2021/11/28 01:38:38;;;;;;;1999.90;999.90;;;;;;;-2.62;58.82;99118.94;4899934;28;97259;-75
2021/11/28 01:41:06;;;;;;;1999.90;999.90;;;;;;;-2.61;58.48;99125.91;4899036;28;97602;-75
2021/11/28 01:43:36;;;;;;;1999.90;999.90;;;;;;;-2.60;58.57;99124.19;4900445;28;98243;-76
2021/11/28 01:46:04;;;;;;;1999.90;999.90;;;;;;;-2.61;58.08;99118.09;4882993;28;97538;-75
2021/11/28 01:48:34;;;;;;;1999.90;999.90;;;;;;;-2.61;58.12;99122.41;4881945;28;97463;-74
2021/11/28 01:51:03;;;;;;;1999.90;999.90;;;;;;;-2.65;58.73;99121.38;4882398;28;97860;-75
2021/11/28 01:53:33;;;;;;;1999.90;999.90;;;;;;;-2.66;58.32;99119.59;4884742;28;99516;-74
2021/11/28 01:56:02;;;;;;;1999.90;999.90;;;;;;;-2.64;58.19;99124.88;4865406;28;97853;-74
2021/11/28 01:58:38;;;;;;;1999.90;999.90;;;;;;;-2.64;58.64;99128.38;4883987;28;97570;-73
2021/11/28 02:01:09;;;;;;;1999.90;999.90;;;;;;;-2.64;58.77;99135.28;4898595;28;97675;-74
2021/11/28 02:03:40;;;;;;;1999.90;999.90;;;;;;;-2.64;58.08;99128.38;4891660;28;97880;-73
2021/11/28 02:06:09;;;;;;;1999.90;999.90;;;;;;;-2.66;58.80;99126.50;4917044;28;98251;-74
2021/11/28 02:08:38;;;;;;;1999.90;999.90;;;;;;;-2.66;58.60;99126.50;4902269;28;97006;-73
2021/11/28 02:11:09;;;;;;;1999.90;999.90;;;;;;;-2.66;58.47;99124.81;4915067;28;99891;-74
2021/11/28 02:13:38;;;;;;;1999.90;999.90;;;;;;;-2.67;57.81;99122.13;4884220;28;99715;-74
2021/11/28 02:16:09;;;;;;;1999.90;999.90;;;;;;;-2.68;58.33;99130.75;4884453;28;98258;-74
2021/11/28 02:18:39;;;;;;;1999.90;999.90;;;;;;;-2.73;58.49;99112.34;4884656;28;97241;-74
2021/11/28 02:21:10;;;;;;;1999.90;999.90;;;;;;;-2.75;58.80;99110.47;4900444;28;97614;-74
2021/11/28 02:23:40;;;;;;;1999.90;999.90;;;;;;;-2.75;58.52;99102.66;4882732;28;100782;-73
2021/11/28 02:26:12;;;;;;;1999.90;999.90;;;;;;;-2.76;58.19;99104.38;4899185;28;97615;-75
2021/11/28 02:28:42;;;;;;;1999.90;999.90;;;;;;;-2.78;58.65;99107.72;4899337;28;96906;-75
2021/11/28 02:31:10;;;;;;;1999.90;999.90;;;;;;;-2.79;57.89;99100.72;4898137;28;97653;-75
2021/11/28 02:33:39;;;;;;;1999.90;999.90;;;;;;;-2.81;58.65;99111.06;4898964;28;98156;-75
2021/11/28 02:36:07;;;;;;;1999.90;999.90;;;;;;;-2.81;58.46;99113.66;4882850;28;98035;-74
2021/11/28 02:38:37;;;;;;;1999.90;999.90;;;;;;;-2.82;58.38;99114.50;4894989;28;97181;-75
2021/11/28 02:41:06;;;;;;;1999.90;999.90;;;;;;;-2.80;58.43;99114.56;4866213;28;100358;-75
2021/11/28 02:43:37;;;;;;;1999.90;999.90;;;;;;;-2.81;58.64;99116.28;4897029;28;98759;-75
2021/11/28 02:46:08;;;;;;;1999.90;999.90;;;;;;;-2.82;58.11;99117.09;4900195;28;97203;-75
2021/11/28 02:48:37;;;;;;;1999.90;999.90;;;;;;;-2.84;58.66;99113.53;4881120;28;98394;-74
2021/11/28 02:51:05;;;;;;;1999.90;999.90;;;;;;;-2.91;58.58;99119.28;4900055;28;98146;-74
2021/11/28 02:53:34;;;;;;;1999.90;999.90;;;;;;;-2.95;58.15;99119.94;4880809;28;97988;-74
2021/11/28 02:56:05;;;;;;;1999.90;999.90;;;;;;;-2.98;58.30;99123.28;4870876;28;97992;-75
2021/11/28 02:58:35;;;;;;;1999.90;999.90;;;;;;;-2.99;58.65;99128.41;4884038;28;99015;-73
2021/11/28 03:01:07;;;;;;;1999.90;999.90;;;;;;;-3.03;58.25;99124.78;4895713;28;98417;-76
2021/11/28 03:03:37;;;;;;;1999.90;999.90;;;;;;;-3.05;58.43;99133.31;4867729;28;102834;-75
2021/11/28 03:06:05;;;;;;;1999.90;999.90;;;;;;;-3.10;58.14;99127.00;4899354;28;96923;-76
2021/11/28 03:08:34;;;;;;;1999.90;999.90;;;;;;;-3.13;58.46;99132.94;4873069;28;98491;-74
2021/11/28 03:11:05;;;;;;;1999.90;999.90;;;;;;;-3.16;58.41;99132.81;4881559;28;99960;-74
2021/11/28 03:13:34;;;;;;;1999.90;999.90;;;;;;;-3.18;58.24;99134.44;4899631;28;97912;-75
2021/11/28 03:16:05;;;;;;;1999.90;999.90;;;;;;;-3.20;58.23;99137.78;4882888;28;96926;-74
2021/11/28 03:18:35;;;;;;;1999.90;999.90;;;;;;;-3.24;58.48;99134.13;4884125;28;97299;-73
2021/11/28 03:21:06;;;;;;;1999.90;999.90;;;;;;;-3.26;59.02;99132.28;4898702;28;97584;-73
2021/11/28 03:23:35;;;;;;;1999.90;999.90;;;;;;;-3.30;58.47;99131.25;4898453;28;99047;-74
2021/11/28 03:26:08;;;;;;;1999.90;999.90;;;;;;;-3.30;58.45;99132.94;4882629;28;97363;-74
2021/11/28 03:28:36;;;;;;;1999.90;999.90;;;;;;;-3.30;58.83;99130.34;4899374;28;98644;-74
2021/11/28 03:31:05;;;;;;;1999.90;999.90;;;;;;;-3.32;58.33;99127.69;4865965;28;99652;-75
2021/11/28 03:34:03;;;;;;;1999.90;999.90;;;;;;;-3.37;58.59;99133.47;4879421;28;99956;-74
2021/11/28 03:36:36;;;;;;;1999.90;999.90;;;;;;;-3.40;58.93;99130.72;4882974;28;97158;-74
2021/11/28 03:39:06;;;;;;;1999.90;999.90;;;;;;;-3.42;59.10;99124.56;4898887;28;97432;-74
2021/11/28 03:41:36;;;;;;;1999.90;999.90;;;;;;;-3.40;58.83;99123.78;4899221;28;99080;-74
2021/11/28 03:44:06;;;;;;;1999.90;999.90;;;;;;;-3.39;59.00;99119.50;4883501;28;99146;-74
2021/11/28 03:46:47;;;;;;;1999.90;999.90;;;;;;;-3.42;58.65;99124.56;4883716;28;96877;-74
2021/11/28 03:49:15;;;;;;;1999.90;999.90;;;;;;;-3.48;59.11;99113.84;4883795;28;97393;-75
2021/11/28 03:51:44;;;;;;;1999.90;999.90;;;;;;;-3.50;58.84;99108.56;4881130;28;99524;-75
2021/11/28 03:54:12;;;;;;;1999.90;999.90;;;;;;;-3.49;58.70;99104.25;4881624;28;99619;-74
2021/11/28 03:56:42;;;;;;;1999.90;999.90;;;;;;;-3.47;58.92;99110.41;4897508;28;97123;-76
2021/11/28 03:59:10;;;;;;;1999.90;999.90;;;;;;;-3.48;58.61;99101.75;4899361;28;99700;-75
2021/11/28 04:01:39;;;;;;;1999.90;999.90;;;;;;;-3.47;58.76;99100.00;4898619;28;98170;-74
2021/11/28 04:04:08;;;;;;;1999.90;999.90;;;;;;;-3.47;58.37;99106.13;4898455;28;99219;-74
2021/11/28 04:06:54;;;;;;;1999.90;999.90;;;;;;;-3.50;59.04;99103.38;4897374;28;97288;-73
2021/11/28 04:09:23;;;;;;;1999.90;999.90;;;;;;;-3.51;58.77;99103.31;4882509;28;97200;-74
2021/11/28 04:11:53;;;;;;;1999.90;999.90;;;;;;;-3.50;58.59;99107.66;4898920;28;98846;-72
2021/11/28 04:14:21;;;;;;;1999.90;999.90;;;;;;;-3.52;58.80;99106.69;4880514;28;98304;-74
2021/11/28 04:16:49;;;;;;;1999.90;999.90;;;;;;;-3.52;58.68;99115.41;4881461;28;97273;-75
2021/11/28 04:19:18;;;;;;;1999.90;999.90;;;;;;;-3.53;58.31;99112.72;4899056;28;97879;-75
2021/11/28 04:21:48;;;;;;;1999.90;999.90;;;;;;;-3.52;58.37;99111.91;4865555;28;100359;-75
2021/11/28 04:24:17;;;;;;;1999.90;999.90;;;;;;;-3.52;58.54;99118.00;4897330;28;97718;-74
2021/11/28 04:26:45;;;;;;;1999.90;999.90;;;;;;;-3.50;58.84;99115.47;4893595;28;97927;-75
2021/11/28 04:29:17;;;;;;;1999.90;999.90;;;;;;;-3.48;58.21;99119.03;4913243;28;97393;-74
2021/11/28 04:31:49;;;;;;;1999.90;999.90;;;;;;;-3.46;58.26;99117.41;4865516;28;100209;-73
2021/11/28 04:34:18;;;;;;;1999.90;999.90;;;;;;;-3.46;58.23;99126.13;4880980;28;98093;-73
2021/11/28 04:36:46;;;;;;;1999.90;999.90;;;;;;;-3.46;58.29;99128.72;4896475;28;97387;-74
2021/11/28 04:39:16;;;;;;;1999.90;999.90;;;;;;;-3.43;58.62;99133.16;4881110;28;97411;-76
2021/11/28 04:41:44;;;;;;;1999.90;999.90;;;;;;;-3.42;58.54;99130.63;4897363;28;98791;-74
2021/11/28 04:44:12;;;;;;;1999.90;999.90;;;;;;;-3.41;58.36;99132.41;4879462;28;98061;-74
2021/11/28 04:46:43;;;;;;;1999.90;999.90;;;;;;;-3.43;58.35;99134.06;4881335;28;96943;-75
2021/11/28 04:49:11;;;;;;;1999.90;999.90;;;;;;;-3.43;58.08;99139.25;4897053;28;97123;-74
2021/11/28 04:51:39;;;;;;;1999.90;999.90;;;;;;;-3.44;58.18;99142.66;4881685;28;98223;-74
2021/11/28 04:54:08;;;;;;;1999.90;999.90;;;;;;;-3.46;58.20;99140.81;4897668;28;97715;-73
2021/11/28 04:56:36;;;;;;;1999.90;999.90;;;;;;;-3.52;58.10;99144.00;4898613;28;96941;-73
2021/11/28 04:59:05;;;;;;;1999.90;999.90;;;;;;;-3.55;58.75;99137.75;4896088;28;97566;-74
2021/11/28 05:01:39;;;;;;;1999.90;999.90;;;;;;;-3.55;59.04;99146.44;4878527;28;99420;-74
2021/11/28 05:04:18;;;;;;;1999.90;999.90;;;;;;;-3.58;58.57;99148.88;4864641;28;100392;-75
2021/11/28 05:06:46;;;;;;;1999.90;999.90;;;;;;;-3.57;58.67;99144.56;4895362;28;97924;-76
2021/11/28 05:09:14;;;;;;;1999.90;999.90;;;;;;;-3.54;58.42;99152.50;4896764;28;97583;-76
2021/11/28 05:11:43;;;;;;;1999.90;999.90;;;;;;;-3.51;58.40;99153.56;4880309;28;100757;-76
2021/11/28 05:14:12;;;;;;;1999.90;999.90;;;;;;;-3.50;58.84;99149.25;4881256;28;97712;-76
2021/11/28 05:16:43;;;;;;;1999.90;999.90;;;;;;;-3.48;58.43;99150.22;4886350;28;96946;-76
2021/11/28 05:19:38;;;;;;;1999.90;999.90;;;;;;;-3.48;58.69;99150.22;4892791;28;96970;-73
2021/11/28 05:22:39;;;;;;;1999.90;999.90;;;;;;;-3.49;58.14;99153.63;4876882;28;99310;-73
2021/11/28 05:25:09;;;;;;;1999.90;999.90;;;;;;;-3.50;58.66;99149.25;4898830;28;97673;-74
2021/11/28 05:27:37;;;;;;;1999.90;999.90;;;;;;;-3.50;58.29;99146.66;4897554;28;97647;-75
2021/11/28 05:30:08;;;;;;;1999.90;999.90;;;;;;;-3.52;58.31;99146.59;4865074;28;98442;-75
2021/11/28 05:32:56;;;;;;;1999.90;999.90;;;;;;;-3.53;59.00;99162.13;4898833;28;99191;-74
2021/11/28 05:36:04;;;;;;;1999.90;999.90;;;;;;;-3.54;58.79;99145.63;4880944;28;100769;-74
2021/11/28 05:38:46;;;;;;;1999.90;999.90;;;;;;;-3.52;58.49;99156.09;4882480;28;97342;-74
2021/11/28 05:41:14;;;;;;;1999.90;999.90;;;;;;;-3.53;58.71;99149.13;4883658;28;98516;-74
2021/11/28 05:43:45;;;;;;;1999.90;999.90;;;;;;;-3.54;58.84;99148.22;4901170;28;98281;-75
2021/11/28 05:46:13;;;;;;;1999.90;999.90;;;;;;;-3.56;58.70;99144.66;4899010;28;98619;-74
2021/11/28 05:49:00;;;;;;;1999.90;999.90;;;;;;;-3.61;58.25;99148.72;4902429;28;99426;-74
2021/11/28 05:51:51;;;;;;;1999.90;999.90;;;;;;;-3.65;58.41;99145.88;4922747;28;97253;-73
2021/11/28 05:54:20;;;;;;;1999.90;999.90;;;;;;;-3.68;59.04;99146.63;4908409;28;99694;-73
2021/11/28 05:56:48;;;;;;;1999.90;999.90;;;;;;;-3.68;58.64;99144.03;4912124;28;97940;-75
2021/11/28 05:59:16;;;;;;;1999.90;999.90;;;;;;;-3.70;58.60;99153.47;4892979;28;97142;-76
2021/11/28 06:01:45;;;;;;;1999.90;999.90;;;;;;;-3.67;58.53;99163.09;4909851;28;97330;-74
2021/11/28 06:04:14;;;;;;;1999.90;999.90;;;;;;;-3.69;58.76;99150.03;4891698;28;99307;-74
2021/11/28 06:06:52;;;;;;;1999.90;999.90;;;;;;;-3.67;58.24;99144.91;4887380;28;99514;-74
2021/11/28 06:09:31;;;;;;;1999.90;999.90;;;;;;;-3.68;58.79;99153.53;4888037;28;96814;-74
2021/11/28 06:11:59;;;;;;;1999.90;999.90;;;;;;;-3.69;58.59;99160.44;4886558;28;98038;-75
2021/11/28 06:14:28;;;;;;;1999.90;999.90;;;;;;;-3.70;58.51;99163.84;4871389;28;100805;-76
2021/11/28 06:17:08;;;;;;;1999.90;999.90;;;;;;;-3.72;58.62;99160.28;4884742;28;97754;-74
2021/11/28 06:19:55;;;;;;;1999.90;999.90;;;;;;;-3.73;58.50;99175.81;4901427;28;97695;-73
2021/11/28 06:22:43;;;;;;;1999.90;999.90;;;;;;;-3.75;58.83;99167.94;4902057;28;98651;-74
2021/11/28 06:25:12;;;;;;;1999.90;999.90;;;;;;;-3.77;58.44;99160.84;4867311;28;99335;-74
2021/11/28 06:28:00;;;;;;;1999.90;999.90;;;;;;;-3.79;58.70;99165.09;4884094;28;99760;-74
2021/11/28 06:30:31;;;;;;;1999.90;999.90;;;;;;;-3.80;58.41;99168.50;4898477;28;96879;-72
2021/11/28 06:33:14;;;;;;;1999.90;999.90;;;;;;;-3.83;58.42;99164.03;4901533;28;96879;-74
2021/11/28 06:36:03;;;;;;;1999.90;999.90;;;;;;;-3.90;58.54;99173.22;4881780;28;99189;-74
2021/11/28 06:38:39;;;;;;;1999.90;999.90;;;;;;;-3.91;58.52;99174.03;4901969;28;101680;-75
2021/11/28 06:41:35;;;;;;;1999.90;999.90;;;;;;;-3.90;58.76;99191.41;4883192;28;97371;-74
2021/11/28 06:44:04;;;;;;;1999.90;999.90;;;;;;;-3.89;58.70;99193.19;4900411;28;97629;-75
2021/11/28 06:46:33;;;;;;;1999.90;999.90;;;;;;;-3.90;58.92;99191.41;4896054;28;98549;-75
2021/11/28 06:49:02;;;;;;;1999.90;999.90;;;;;;;-3.91;58.74;99194.81;4900437;28;97585;-76
2021/11/28 06:51:39;;;;;;;1999.90;999.90;;;;;;;-3.92;58.76;99193.03;4902017;28;96797;-75
2021/11/28 06:54:26;;;;;;;1999.90;999.90;;;;;;;-3.93;58.68;99198.13;4870414;28;97874;-75
2021/11/28 06:57:04;;;;;;;1999.90;999.90;;;;;;;-3.92;58.94;99189.53;4884255;28;97395;-75
2021/11/28 06:59:33;;;;;;;1999.90;999.90;;;;;;;-3.94;58.59;99186.88;4902719;28;97121;-75
2021/11/28 07:02:01;;;;;;;1999.90;999.90;;;;;;;-3.95;58.80;99186.78;4886075;28;97557;-76
2021/11/28 07:04:49;;;;;;;1999.90;999.90;;;;;;;-3.99;58.68;99190.91;4901361;28;97440;-75
2021/11/28 07:07:18;;;;;;;1999.90;999.90;;;;;;;-4.00;58.90;99191.72;4900880;28;99730;-75
2021/11/28 07:09:55;;;;;;;1999.90;999.90;;;;;;;-3.98;58.77;99189.19;4884940;28;97575;-75
2021/11/28 07:12:24;;;;;;;1999.90;999.90;;;;;;;-3.99;58.63;99206.47;4881722;28;97889;-75
2021/11/28 07:14:52;;;;;;;1999.90;999.90;;;;;;;-4.01;58.35;99208.13;4864918;28;98399;-75
2021/11/28 07:17:23;;;;;;;1999.90;999.90;;;;;;;-4.01;58.83;99209.84;4880877;28;98742;-74
2021/11/28 07:19:55;;;;;;;1999.90;999.90;;;;;;;-4.04;58.68;99207.94;4883146;28;98347;-76
2021/11/28 07:22:44;;;;;;;1999.90;999.90;;;;;;;-4.07;58.75;99213.00;4877986;28;97934;-76
2021/11/28 07:25:13;;;;;;;1999.90;999.90;;;;;;;-4.09;58.42;99204.22;4878100;28;98921;-76
2021/11/28 07:27:46;;;;;;;1999.90;999.90;;;;;;;-4.10;58.72;99201.56;4861968;28;99132;-75
2021/11/28 07:30:15;;;;;;;1999.90;999.90;;;;;;;-4.18;58.68;99208.94;4877491;28;99281;-75
2021/11/28 07:32:46;;;;;;;1999.90;999.90;;;;;;;-4.22;58.82;99214.75;4878357;28;97198;-75
2021/11/28 07:35:37;;;;;;;1999.90;999.90;;;;;;;-4.22;58.90;99221.66;4866627;28;99395;-74
2021/11/28 07:38:18;;;;;;;1999.90;999.90;;;;;;;-4.24;59.09;99226.75;4876924;28;98880;-75
2021/11/28 07:40:48;;;;;;;1999.90;999.90;;;;;;;-4.24;58.76;99244.06;4877230;28;99199;-74
2021/11/28 07:43:42;;;;;;;1999.90;999.90;;;;;;;-4.23;58.30;99245.84;4894805;28;97527;-74
2021/11/28 07:46:29;;;;;;;1999.90;999.90;;;;;;;-4.24;58.85;99238.88;4892985;28;98847;-75
2021/11/28 07:49:02;;;;;;;1999.90;999.90;;;;;;;-4.26;58.89;99230.97;4878287;28;99348;-75
2021/11/28 07:51:30;;;;;;;1999.90;999.90;;;;;;;-4.25;58.92;99237.97;4878442;28;97782;-74
2021/11/28 07:54:01;;;;;;;1999.90;999.90;;;;;;;-4.27;58.74;99233.50;4878684;28;97930;-74
2021/11/28 07:56:32;;;;;;;1999.90;999.90;;;;;;;-4.30;58.89;99239.44;4879027;28;98006;-73
2021/11/28 07:59:19;;;;;;;1999.90;999.90;;;;;;;-4.29;59.20;99240.31;4895329;28;98766;-71
2021/11/28 08:01:49;;;;;;;1999.90;999.90;;;;;;;-4.29;59.19;99227.31;4878390;28;99709;-70
2021/11/28 08:04:36;;;;;;;1999.90;999.90;;;;;;;-4.27;59.11;99226.59;4894495;28;97073;-74
2021/11/28 08:07:23;;;;;;;1999.90;999.90;;;;;;;-4.27;59.14;99231.78;4896364;28;97662;-74
2021/11/28 08:10:10;;;;;;;1999.90;999.90;;;;;;;-4.26;59.29;99235.28;4878973;28;98458;-77
2021/11/28 08:12:39;;;;;;;1999.90;999.90;;;;;;;-4.25;59.29;99235.38;4881423;28;99583;-74
2021/11/28 08:15:15;;;;;;;1999.90;999.90;;;;;;;-4.22;59.04;99239.81;4896023;28;98821;-74
2021/11/28 08:17:44;;;;;;;1999.90;999.90;;;;;;;-4.20;59.04;99240.81;4895447;28;97089;-74
2021/11/28 08:20:13;;;;;;;1999.90;999.90;;;;;;;-4.16;59.45;99245.34;4878528;28;99026;-72
2021/11/28 08:22:41;;;;;;;1999.90;999.90;;;;;;;-4.14;58.97;99246.34;4895377;28;99074;-75
2021/11/28 08:25:13;;;;;;;1999.90;999.90;;;;;;;-4.10;59.07;99248.28;4896840;28;97185;-74
2021/11/28 08:27:43;;;;;;;1999.90;999.90;;;;;;;-4.10;59.09;99249.19;4879487;28;99122;-75
2021/11/28 08:30:14;;;;;;;1999.90;999.90;;;;;;;-4.07;59.04;99251.03;4878250;28;99306;-77
2021/11/28 08:33:01;;;;;;;1999.90;999.90;;;;;;;-4.02;59.07;99258.28;4899515;28;97704;-74
2021/11/28 08:35:55;;;;;;;1999.90;999.90;;;;;;;-3.97;59.38;99256.81;4873685;28;99398;-74
2021/11/28 08:38:24;;;;;;;1999.90;999.90;;;;;;;-3.92;58.91;99260.56;4897342;28;98777;-75
2021/11/28 08:40:52;;;;;;;1999.90;999.90;;;;;;;-3.88;58.70;99265.09;4896426;28;98852;-73
2021/11/28 08:43:22;;;;;;;1999.90;999.90;;;;;;;-3.80;58.67;99264.63;4879095;28;100573;-73
2021/11/28 08:45:50;;;;;;;1999.90;999.90;;;;;;;-3.77;58.81;99275.19;4879479;28;97756;-73
2021/11/28 08:48:19;;;;;;;1999.90;999.90;;;;;;;-3.76;58.60;99277.84;4896863;28;97448;-75
2021/11/28 08:50:47;;;;;;;1999.90;999.90;;;;;;;-3.75;58.87;99273.56;4876204;28;98823;-73
2021/11/28 08:53:15;;;;;;;1999.90;999.90;;;;;;;-3.73;58.74;99264.16;4894851;28;99353;-76
2021/11/28 08:55:43;;;;;;;1999.90;999.90;;;;;;;-3.70;58.78;99266.91;4884553;28;97644;-74
2021/11/28 08:58:11;;;;;;;1999.90;999.90;;;;;;;-3.68;58.58;99263.59;4895871;28;98403;-75
2021/11/28 09:00:41;;;;;;;1999.90;999.90;;;;;;;-3.64;58.60;99269.84;4864425;28;99831;-74
2021/11/28 09:03:09;;;;;;;1999.90;999.90;;;;;;;-3.59;58.32;99273.56;4900414;28;97941;-75
2021/11/28 09:05:38;;;;;;;1999.90;999.90;;;;;;;-3.54;58.60;99264.28;4881939;28;97879;-74
2021/11/28 09:08:06;;;;;;;1999.90;999.90;;;;;;;-3.50;58.52;99272.34;4885466;28;97197;-75
2021/11/28 09:10:34;;;;;;;1999.90;999.90;;;;;;;-3.45;58.54;99281.25;4882571;28;100699;-75
2021/11/28 09:13:03;;;;;;;1999.90;999.90;;;;;;;-3.45;57.97;99281.25;4882346;28;97813;-76
2021/11/28 09:15:32;;;;;;;1999.90;999.90;;;;;;;-3.42;57.91;99288.34;4904768;28;97662;-74
2021/11/28 09:18:05;;;;;;;1999.90;999.90;;;;;;;-3.39;58.31;99285.88;4906377;28;97822;-77
2021/11/28 09:20:34;;;;;;;1999.90;999.90;;;;;;;-3.33;57.98;99283.63;4904319;28;98615;-77
2021/11/28 09:25:49;;;;;;;1999.90;999.90;;;;;;;-3.23;57.88;99273.75;4902466;28;97386;-76
2021/11/28 09:28:17;;;;;;;1999.90;999.90;;;;;;;-3.19;57.89;99262.69;4886008;28;98107;-76
2021/11/28 09:30:47;;;;;;;1999.90;999.90;;;;;;;-3.12;57.95;99253.50;4906198;28;97509;-74
2021/11/28 09:33:19;;;;;;;1999.90;999.90;;;;;;;-3.06;58.04;99262.50;4902692;28;97842;-77
2021/11/28 09:35:48;;;;;;;1999.90;999.90;;;;;;;-3.00;57.88;99255.00;4907324;28;98139;-74
2021/11/28 09:38:16;;;;;;;1999.90;999.90;;;;;;;-2.94;57.56;99252.72;4893670;28;97252;-77
2021/11/28 09:40:46;;;;;;;1999.90;999.90;;;;;;;-2.87;57.98;99259.09;4909533;28;98288;-75
2021/11/28 09:43:15;;;;;;;1999.90;999.90;;;;;;;-2.84;57.79;99254.06;4890348;28;98251;-75
2021/11/28 09:45:46;;;;;;;1999.90;999.90;;;;;;;-2.78;57.53;99254.34;4904908;28;98421;-75
2021/11/28 09:48:15;;;;;;;1999.90;999.90;;;;;;;-2.74;57.19;99248.47;4908031;28;97240;-75
2021/11/28 09:50:45;;;;;;;1999.90;999.90;;;;;;;-2.70;57.10;99245.22;4904933;28;97577;-74
2021/11/28 09:53:34;;;;;;;1999.90;999.90;;;;;;;-2.67;57.53;99241.88;4917250;28;97668;-73
2021/11/28 09:56:05;;;;;;;1999.90;999.90;;;;;;;-2.64;57.68;99235.09;4901136;28;98772;-76
2021/11/28 09:58:34;;;;;;;1999.90;999.90;;;;;;;-2.60;57.04;99239.63;4922126;28;96870;-73
2021/11/28 10:01:03;;;;;;;1999.90;999.90;;;;;;;-2.58;57.39;99231.91;4917056;28;98449;-77
2021/11/28 10:03:32;;;;;;;1999.90;999.90;;;;;;;-2.55;57.42;99224.22;4902436;28;99320;-74
2021/11/28 10:06:01;;;;;;;1999.90;999.90;;;;;;;-2.52;57.40;99217.47;4918977;28;97046;-74
2021/11/28 10:08:31;;;;;;;1999.90;999.90;;;;;;;-2.51;57.39;99210.53;4914852;28;97005;-74
2021/11/28 10:11:38;;;;;;;1999.90;999.90;;;;;;;-2.51;56.67;99206.22;4911209;28;100275;-75
2021/11/28 10:14:08;;;;;;;1999.90;999.90;;;;;;;-2.47;57.27;99200.34;4855269;28;98069;-76
2021/11/28 10:16:37;;;;;;;1999.90;999.90;;;;;;;-2.43;57.40;99204.88;4905858;28;96805;-76
2021/11/28 10:19:08;;;;;;;1999.90;999.90;;;;;;;-2.41;57.06;99203.22;4903060;28;97512;-75
2021/11/28 10:21:38;;;;;;;1999.90;999.90;;;;;;;-2.35;56.59;99198.31;4882503;28;98553;-76
2021/11/28 10:24:10;;;;;;;1999.90;999.90;;;;;;;-2.31;57.21;99189.81;4897961;28;99317;-76
2021/11/28 10:26:53;;;;;;;1999.90;999.90;;;;;;;-2.29;57.19;99190.78;4881999;28;98971;-76
2021/11/28 10:29:22;;;;;;;1999.90;999.90;;;;;;;-2.24;57.09;99191.00;4884720;28;97777;-76
2021/11/28 10:31:52;;;;;;;1999.90;999.90;;;;;;;-2.19;56.79;99192.09;4901120;28;97806;-76
2021/11/28 10:34:22;;;;;;;1999.90;999.90;;;;;;;-2.15;56.71;99194.97;4900440;28;99439;-76
2021/11/28 10:36:54;;;;;;;1999.90;999.90;;;;;;;-2.12;56.48;99187.28;4866839;28;97626;-76
2021/11/28 10:39:23;;;;;;;1999.90;999.90;;;;;;;-2.07;56.30;99190.09;4897070;28;97176;-76
2021/11/28 10:41:53;;;;;;;1999.90;999.90;;;;;;;-2.06;56.44;99182.34;4897104;28;98737;-76
2021/11/28 10:44:23;;;;;;;1999.90;999.90;;;;;;;-2.02;56.76;99188.59;4877871;28;100330;-76
2021/11/28 10:46:52;;;;;;;1999.90;999.90;;;;;;;-2.02;56.63;99180.78;4895079;28;98439;-76
2021/11/28 10:49:24;;;;;;;1999.90;999.90;;;;;;;-2.00;56.49;99189.56;4882671;28;98174;-74
2021/11/28 10:51:57;;;;;;;1999.90;999.90;;;;;;;-1.97;56.76;99194.88;4898758;28;98601;-76
2021/11/28 10:54:28;;;;;;;1999.90;999.90;;;;;;;-1.93;57.00;99189.91;4898522;28;99089;-75
2021/11/28 10:57:18;;;;;;;1999.90;999.90;;;;;;;-1.87;56.93;99199.72;4899904;28;96809;-76
2021/11/28 10:59:56;;;;;;;1999.90;999.90;;;;;;;-1.82;56.49;99190.38;4900536;28;96835;-76
2021/11/28 11:02:25;;;;;;;1999.90;999.90;;;;;;;-1.75;56.68;99189.81;4883984;28;101068;-75
2021/11/28 11:04:56;;;;;;;1999.90;999.90;;;;;;;-1.70;56.19;99184.78;4899967;28;100523;-75
2021/11/28 11:07:48;;;;;;;1999.90;999.90;;;;;;;-1.67;56.59;99183.22;4884539;28;96826;-76
2021/11/28 11:10:19;;;;;;;1999.90;999.90;;;;;;;-1.62;55.96;99191.25;4899195;28;96898;-75
2021/11/28 11:12:48;;;;;;;1999.90;999.90;;;;;;;-1.57;56.65;99194.94;4898422;28;99382;-74
2021/11/28 11:15:31;;;;;;;1999.90;999.90;;;;;;;-1.58;55.85;99187.94;4902183;28;98913;-76
2021/11/28 11:18:02;;;;;;;1999.90;999.90;;;;;;;-1.56;56.49;99191.50;4887065;28;96998;-76
2021/11/28 11:20:32;;;;;;;1999.90;999.90;;;;;;;-1.51;56.50;99192.59;4885813;28;98089;-75